sensor_id;sensor_type;location;lat;lon;timestamp;pressure;altitude;pressure_sealevel;temperature;humidity
10832;BME280;5469;48.574;8.768;2023-02-17T00:02:07;95671.47;;;9.25;nan
10832;BME280;5469;48.574;8.768;2023-02-17T00:04:42;95684.28;;;9.33;nan
10832;BME280;5469;48.574;8.768;2023-02-17T00:07:17;95673.25;;;9.19;nan
10832;BME280;5469;48.574;8.768;2023-02-17T00:09:53;95674.22;;;9.13;nan
10832;BME280;5469;48.574;8.768;2023-02-17T00:12:30;95664.44;;;9.13;nan
10832;BME280;5469;48.574;8.768;2023-02-17T00:15:06;95673.06;;;9.26;nan
10832;BME280;5469;48.574;8.768;2023-02-17T00:17:41;95671.34;;;9.14;nan
10832;BME280;5469;48.574;8.768;2023-02-17T00:20:16;95668.13;;;9.12;nan
10832;BME280;5469;48.574;8.768;2023-02-17T00:22:53;95670.69;;;9.07;nan
10832;BME280;5469;48.574;8.768;2023-02-17T00:25:28;95666.63;;;9.16;nan
10832;BME280;5469;48.574;8.768;2023-02-17T00:28:06;95664.31;;;9.03;nan
10832;BME280;5469;48.574;8.768;2023-02-17T00:30:41;95669.97;;;9.12;nan
10832;BME280;5469;48.574;8.768;2023-02-17T00:33:16;95670.19;;;9.10;nan
10832;BME280;5469;48.574;8.768;2023-02-17T00:35:50;95673.25;;;9.02;nan
10832;BME280;5469;48.574;8.768;2023-02-17T00:38:27;95674.88;;;9.03;nan
10832;BME280;5469;48.574;8.768;2023-02-17T00:41:03;95664.84;;;9.05;nan
10832;BME280;5469;48.574;8.768;2023-02-17T00:43:40;95667.19;;;9.02;nan
10832;BME280;5469;48.574;8.768;2023-02-17T00:46:15;95658.69;;;9.00;nan
10832;BME280;5469;48.574;8.768;2023-02-17T00:48:51;95651.16;;;8.91;nan
10832;BME280;5469;48.574;8.768;2023-02-17T00:51:26;95657.72;;;8.89;nan
10832;BME280;5469;48.574;8.768;2023-02-17T00:54:02;95649.72;;;8.84;nan
10832;BME280;5469;48.574;8.768;2023-02-17T00:56:38;95663.09;;;8.94;nan
10832;BME280;5469;48.574;8.768;2023-02-17T00:59:15;95660.22;;;8.95;nan
10832;BME280;5469;48.574;8.768;2023-02-17T01:01:51;95664.53;;;9.02;nan
10832;BME280;5469;48.574;8.768;2023-02-17T01:04:25;95659.53;;;9.05;nan
10832;BME280;5469;48.574;8.768;2023-02-17T01:07:00;95655.31;;;9.04;nan
10832;BME280;5469;48.574;8.768;2023-02-17T01:09:35;95654.91;;;9.12;nan
10832;BME280;5469;48.574;8.768;2023-02-17T01:12:12;95662.19;;;9.05;nan
10832;BME280;5469;48.574;8.768;2023-02-17T01:14:48;95658.53;;;9.06;nan
10832;BME280;5469;48.574;8.768;2023-02-17T01:17:24;95664.44;;;9.13;nan
10832;BME280;5469;48.574;8.768;2023-02-17T01:19:59;95657.69;;;9.23;nan
10832;BME280;5469;48.574;8.768;2023-02-17T01:25:09;95657.69;;;9.23;nan
10832;BME280;5469;48.574;8.768;2023-02-17T01:27:44;95654.47;;;9.21;nan
10832;BME280;5469;48.574;8.768;2023-02-17T01:30:21;95645.38;;;9.11;nan
10832;BME280;5469;48.574;8.768;2023-02-17T01:32:56;95645.44;;;9.16;nan
10832;BME280;5469;48.574;8.768;2023-02-17T01:35:32;95647.03;;;9.17;nan
10832;BME280;5469;48.574;8.768;2023-02-17T01:38:07;95646.03;;;9.18;nan
10832;BME280;5469;48.574;8.768;2023-02-17T01:40:47;95639.19;;;9.23;nan
10832;BME280;5469;48.574;8.768;2023-02-17T01:43:23;95625.50;;;9.09;nan
10832;BME280;5469;48.574;8.768;2023-02-17T01:46:02;95621.31;;;9.13;nan
10832;BME280;5469;48.574;8.768;2023-02-17T01:48:39;95615.78;;;9.14;nan
10832;BME280;5469;48.574;8.768;2023-02-17T01:51:19;95611.41;;;9.03;nan
10832;BME280;5469;48.574;8.768;2023-02-17T01:53:58;95613.00;;;9.04;nan
10832;BME280;5469;48.574;8.768;2023-02-17T01:56:37;95607.72;;;9.04;nan
10832;BME280;5469;48.574;8.768;2023-02-17T01:59:18;95615.09;;;9.02;nan
10832;BME280;5469;48.574;8.768;2023-02-17T02:01:59;95616.22;;;9.06;nan
10832;BME280;5469;48.574;8.768;2023-02-17T02:04:37;95624.06;;;9.01;nan
10832;BME280;5469;48.574;8.768;2023-02-17T02:07:17;95619.09;;;9.05;nan
10832;BME280;5469;48.574;8.768;2023-02-17T02:09:57;95619.44;;;9.08;nan
10832;BME280;5469;48.574;8.768;2023-02-17T02:12:35;95597.78;;;9.11;nan
10832;BME280;5469;48.574;8.768;2023-02-17T02:15:16;95601.72;;;9.09;nan
10832;BME280;5469;48.574;8.768;2023-02-17T02:18:17;95604.91;;;9.11;nan
10832;BME280;5469;48.574;8.768;2023-02-17T02:24:30;95609.72;;;9.36;nan
10832;BME280;5469;48.574;8.768;2023-02-17T02:33:37;95600.13;;;9.30;nan
10832;BME280;5469;48.574;8.768;2023-02-17T02:36:18;95597.41;;;9.25;nan
10832;BME280;5469;48.574;8.768;2023-02-17T02:39:01;95600.00;;;9.19;nan
10832;BME280;5469;48.574;8.768;2023-02-17T02:41:42;95599.19;;;9.19;nan
10832;BME280;5469;48.574;8.768;2023-02-17T02:44:21;95589.28;;;9.09;nan
10832;BME280;5469;48.574;8.768;2023-02-17T02:46:56;95592.97;;;9.08;nan
10832;BME280;5469;48.574;8.768;2023-02-17T02:49:35;95595.06;;;9.06;nan
10832;BME280;5469;48.574;8.768;2023-02-17T02:52:17;95596.66;;;9.07;nan
10832;BME280;5469;48.574;8.768;2023-02-17T02:55:05;95589.44;;;9.03;nan
10832;BME280;5469;48.574;8.768;2023-02-17T02:57:49;95593.13;;;9.18;nan
10832;BME280;5469;48.574;8.768;2023-02-17T03:00:31;95601.44;;;9.10;nan
10832;BME280;5469;48.574;8.768;2023-02-17T03:03:11;95598.72;;;9.05;nan
10832;BME280;5469;48.574;8.768;2023-02-17T03:05:58;95600.00;;;9.03;nan
10832;BME280;5469;48.574;8.768;2023-02-17T03:08:39;95602.28;;;8.94;nan
10832;BME280;5469;48.574;8.768;2023-02-17T03:11:17;95588.97;;;9.06;nan
10832;BME280;5469;48.574;8.768;2023-02-17T03:14:07;95589.13;;;8.99;nan
10832;BME280;5469;48.574;8.768;2023-02-17T03:16:43;95585.44;;;9.00;nan
10832;BME280;5469;48.574;8.768;2023-02-17T03:19:21;95587.84;;;9.02;nan
10832;BME280;5469;48.574;8.768;2023-02-17T03:22:04;95586.41;;;8.94;nan
10832;BME280;5469;48.574;8.768;2023-02-17T03:24:40;95592.34;;;9.01;nan
10832;BME280;5469;48.574;8.768;2023-02-17T03:27:15;95587.13;;;9.06;nan
10832;BME280;5469;48.574;8.768;2023-02-17T03:29:50;95595.78;;;9.02;nan
10832;BME280;5469;48.574;8.768;2023-02-17T03:32:25;95598.28;;;9.08;nan
10832;BME280;5469;48.574;8.768;2023-02-17T03:35:00;95592.41;;;9.06;nan
10832;BME280;5469;48.574;8.768;2023-02-17T03:37:37;95588.00;;;9.12;nan
10832;BME280;5469;48.574;8.768;2023-02-17T03:40:12;95582.88;;;9.05;nan
10832;BME280;5469;48.574;8.768;2023-02-17T03:42:47;95588.34;;;8.99;nan
10832;BME280;5469;48.574;8.768;2023-02-17T03:45:22;95597.16;;;9.04;nan
10832;BME280;5469;48.574;8.768;2023-02-17T03:47:57;95593.38;;;9.00;nan
10832;BME280;5469;48.574;8.768;2023-02-17T03:50:32;95594.34;;;8.94;nan
10832;BME280;5469;48.574;8.768;2023-02-17T03:53:09;95595.41;;;8.93;nan
10832;BME280;5469;48.574;8.768;2023-02-17T03:55:44;95593.25;;;8.90;nan
10832;BME280;5469;48.574;8.768;2023-02-17T03:58:19;95598.28;;;8.91;nan
10832;BME280;5469;48.574;8.768;2023-02-17T04:00:54;95593.19;;;8.85;nan
10832;BME280;5469;48.574;8.768;2023-02-17T04:03:29;95596.34;;;8.87;nan
10832;BME280;5469;48.574;8.768;2023-02-17T04:06:05;95594.28;;;8.89;nan
10832;BME280;5469;48.574;8.768;2023-02-17T04:08:43;95585.31;;;8.90;nan
10832;BME280;5469;48.574;8.768;2023-02-17T04:11:18;95587.69;;;8.91;nan
10832;BME280;5469;48.574;8.768;2023-02-17T04:13:53;95586.13;;;8.90;nan
10832;BME280;5469;48.574;8.768;2023-02-17T04:16:28;95578.50;;;8.94;nan
10832;BME280;5469;48.574;8.768;2023-02-17T04:19:03;95592.19;;;8.91;nan
10832;BME280;5469;48.574;8.768;2023-02-17T04:21:38;95605.50;;;8.96;nan
10832;BME280;5469;48.574;8.768;2023-02-17T04:24:15;95598.13;;;8.98;nan
10832;BME280;5469;48.574;8.768;2023-02-17T04:26:50;95601.78;;;8.97;nan
10832;BME280;5469;48.574;8.768;2023-02-17T04:29:25;95599.16;;;8.97;nan
10832;BME280;5469;48.574;8.768;2023-02-17T04:32:00;95599.41;;;8.95;nan
10832;BME280;5469;48.574;8.768;2023-02-17T04:34:35;95607.91;;;8.98;nan
10832;BME280;5469;48.574;8.768;2023-02-17T04:37:12;95599.72;;;8.99;nan
10832;BME280;5469;48.574;8.768;2023-02-17T04:39:49;95615.00;;;8.97;nan
10832;BME280;5469;48.574;8.768;2023-02-17T04:42:24;95599.72;;;8.99;nan
10832;BME280;5469;48.574;8.768;2023-02-17T04:44:59;95592.66;;;9.05;nan
10832;BME280;5469;48.574;8.768;2023-02-17T04:47:34;95585.78;;;9.04;nan
10832;BME280;5469;48.574;8.768;2023-02-17T04:50:10;95588.06;;;9.00;nan
10832;BME280;5469;48.574;8.768;2023-02-17T04:52:45;95597.00;;;8.94;nan
10832;BME280;5469;48.574;8.768;2023-02-17T04:55:22;95582.75;;;8.95;nan
10832;BME280;5469;48.574;8.768;2023-02-17T04:57:58;95592.19;;;8.91;nan
10832;BME280;5469;48.574;8.768;2023-02-17T05:00:33;95587.06;;;9.01;nan
10832;BME280;5469;48.574;8.768;2023-02-17T05:03:08;95581.47;;;8.98;nan
10832;BME280;5469;48.574;8.768;2023-02-17T05:05:44;95573.91;;;9.06;nan
10832;BME280;5469;48.574;8.768;2023-02-17T05:08:19;95570.06;;;8.97;nan
10832;BME280;5469;48.574;8.768;2023-02-17T05:10:56;95572.19;;;8.95;nan
10832;BME280;5469;48.574;8.768;2023-02-17T05:13:31;95566.75;;;8.85;nan
10832;BME280;5469;48.574;8.768;2023-02-17T05:16:05;95572.63;;;8.92;nan
10832;BME280;5469;48.574;8.768;2023-02-17T05:18:40;95567.19;;;8.99;nan
10832;BME280;5469;48.574;8.768;2023-02-17T05:21:16;95571.84;;;8.91;nan
10832;BME280;5469;48.574;8.768;2023-02-17T05:23:51;95556.16;;;8.85;nan
10832;BME280;5469;48.574;8.768;2023-02-17T05:26:31;95558.69;;;8.96;nan
10832;BME280;5469;48.574;8.768;2023-02-17T05:29:07;95563.69;;;8.93;nan
10832;BME280;5469;48.574;8.768;2023-02-17T05:31:42;95566.75;;;8.85;nan
10832;BME280;5469;48.574;8.768;2023-02-17T05:34:17;95558.88;;;8.90;nan
10832;BME280;5469;48.574;8.768;2023-02-17T05:36:52;95562.88;;;8.92;nan
10832;BME280;5469;48.574;8.768;2023-02-17T05:39:27;95577.31;;;8.85;nan
10832;BME280;5469;48.574;8.768;2023-02-17T05:42:03;95567.50;;;9.02;nan
10832;BME280;5469;48.574;8.768;2023-02-17T05:44:38;95566.75;;;8.85;nan
10832;BME280;5469;48.574;8.768;2023-02-17T05:47:17;95560.78;;;8.94;nan
10832;BME280;5469;48.574;8.768;2023-02-17T05:49:52;95563.25;;;9.01;nan
10832;BME280;5469;48.574;8.768;2023-02-17T05:52:27;95563.19;;;8.96;nan
10832;BME280;5469;48.574;8.768;2023-02-17T05:55:04;95571.06;;;8.91;nan
10832;BME280;5469;48.574;8.768;2023-02-17T05:57:41;95562.69;;;8.99;nan
10832;BME280;5469;48.574;8.768;2023-02-17T06:00:17;95561.47;;;8.85;nan
10832;BME280;5469;48.574;8.768;2023-02-17T06:02:54;95573.75;;;8.96;nan
10832;BME280;5469;48.574;8.768;2023-02-17T06:05:28;95563.34;;;8.89;nan
10832;BME280;5469;48.574;8.768;2023-02-17T06:08:03;95578.19;;;8.90;nan
10832;BME280;5469;48.574;8.768;2023-02-17T06:10:39;95595.91;;;8.90;nan
10832;BME280;5469;48.574;8.768;2023-02-17T06:13:16;95582.13;;;8.88;nan
10832;BME280;5469;48.574;8.768;2023-02-17T06:15:52;95580.34;;;8.93;nan
10832;BME280;5469;48.574;8.768;2023-02-17T06:18:28;95589.13;;;8.99;nan
10832;BME280;5469;48.574;8.768;2023-02-17T06:21:03;95594.84;;;8.91;nan
10832;BME280;5469;48.574;8.768;2023-02-17T06:23:38;95596.19;;;8.93;nan
10832;BME280;5469;48.574;8.768;2023-02-17T06:26:13;95579.69;;;8.86;nan
10832;BME280;5469;48.574;8.768;2023-02-17T06:28:49;95596.34;;;8.87;nan
10832;BME280;5469;48.574;8.768;2023-02-17T06:31:24;95594.28;;;8.89;nan
10832;BME280;5469;48.574;8.768;2023-02-17T06:33:59;95599.81;;;8.87;nan
10832;BME280;5469;48.574;8.768;2023-02-17T06:36:35;95599.50;;;8.84;nan
10832;BME280;5469;48.574;8.768;2023-02-17T06:39:22;95616.41;;;8.83;nan
10832;BME280;5469;48.574;8.768;2023-02-17T06:42:01;95614.47;;;8.78;nan
10832;BME280;5469;48.574;8.768;2023-02-17T06:44:38;95613.19;;;8.81;nan
10832;BME280;5469;48.574;8.768;2023-02-17T06:47:13;95605.19;;;8.75;nan
10832;BME280;5469;48.574;8.768;2023-02-17T06:49:49;95607.91;;;8.81;nan
10832;BME280;5469;48.574;8.768;2023-02-17T06:52:24;95604.69;;;8.79;nan
10832;BME280;5469;48.574;8.768;2023-02-17T06:54:59;95619.13;;;8.71;nan
10832;BME280;5469;48.574;8.768;2023-02-17T06:57:34;95626.03;;;8.72;nan
10832;BME280;5469;48.574;8.768;2023-02-17T07:00:11;95618.31;;;8.70;nan
10832;BME280;5469;48.574;8.768;2023-02-17T07:02:47;95621.53;;;8.72;nan
10832;BME280;5469;48.574;8.768;2023-02-17T07:05:22;95628.75;;;8.77;nan
10832;BME280;5469;48.574;8.768;2023-02-17T07:07:58;95635.47;;;8.68;nan
10832;BME280;5469;48.574;8.768;2023-02-17T07:10:35;95639.94;;;8.67;nan
10832;BME280;5469;48.574;8.768;2023-02-17T07:13:10;95634.19;;;8.70;nan
10832;BME280;5469;48.574;8.768;2023-02-17T07:15:46;95633.69;;;8.73;nan
10832;BME280;5469;48.574;8.768;2023-02-17T07:18:21;95639.06;;;8.79;nan
10832;BME280;5469;48.574;8.768;2023-02-17T07:20:57;95633.53;;;8.63;nan
10832;BME280;5469;48.574;8.768;2023-02-17T07:23:32;95636.09;;;8.58;nan
10832;BME280;5469;48.574;8.768;2023-02-17T07:26:13;95642.50;;;8.62;nan
10832;BME280;5469;48.574;8.768;2023-02-17T07:28:49;95637.88;;;8.69;nan
10832;BME280;5469;48.574;8.768;2023-02-17T07:31:26;95640.34;;;8.59;nan
10832;BME280;5469;48.574;8.768;2023-02-17T07:34:02;95655.81;;;8.67;nan
10832;BME280;5469;48.574;8.768;2023-02-17T07:36:44;95665.41;;;8.73;nan
10832;BME280;5469;48.574;8.768;2023-02-17T07:39:22;95662.28;;;8.77;nan
10832;BME280;5469;48.574;8.768;2023-02-17T07:41:57;95668.38;;;8.60;nan
10832;BME280;5469;48.574;8.768;2023-02-17T07:44:34;95666.84;;;8.64;nan
10832;BME280;5469;48.574;8.768;2023-02-17T07:47:12;95672.84;;;8.77;nan
10832;BME280;5469;48.574;8.768;2023-02-17T07:49:47;95668.44;;;8.65;nan
10832;BME280;5469;48.574;8.768;2023-02-17T07:52:22;95661.91;;;8.85;nan
10832;BME280;5469;48.574;8.768;2023-02-17T07:54:57;95657.22;;;8.92;nan
10832;BME280;5469;48.574;8.768;2023-02-17T07:57:32;95659.97;;;8.97;nan
10832;BME280;5469;48.574;8.768;2023-02-17T08:00:08;95666.53;;;9.11;nan
10832;BME280;5469;48.574;8.768;2023-02-17T08:02:53;95679.03;;;8.99;nan
10832;BME280;5469;48.574;8.768;2023-02-17T08:05:28;95667.81;;;9.09;nan
10832;BME280;5469;48.574;8.768;2023-02-17T08:08:05;95676.78;;;9.08;nan
10832;BME280;5469;48.574;8.768;2023-02-17T08:11:02;95687.13;;;9.09;nan
10832;BME280;5469;48.574;8.768;2023-02-17T08:13:54;95684.63;;;9.19;nan
10832;BME280;5469;48.574;8.768;2023-02-17T08:16:29;95684.84;;;9.35;nan
10832;BME280;5469;48.574;8.768;2023-02-17T08:19:06;95683.03;;;9.18;nan
10832;BME280;5469;48.574;8.768;2023-02-17T08:21:42;95691.03;;;9.40;nan
10832;BME280;5469;48.574;8.768;2023-02-17T08:24:18;95685.97;;;9.39;nan
10832;BME280;5469;48.574;8.768;2023-02-17T08:26:54;95686.38;;;9.31;nan
10832;BME280;5469;48.574;8.768;2023-02-17T08:29:29;95689.53;;;9.67;nan
10832;BME280;5469;48.574;8.768;2023-02-17T08:32:05;95688.50;;;9.68;nan
10832;BME280;5469;48.574;8.768;2023-02-17T08:34:43;95697.16;;;9.85;nan
10832;BME280;5469;48.574;8.768;2023-02-17T08:37:18;95695.94;;;9.71;nan
10832;BME280;5469;48.574;8.768;2023-02-17T08:39:53;95703.09;;;9.92;nan
10832;BME280;5469;48.574;8.768;2023-02-17T08:42:29;95698.81;;;9.69;nan
10832;BME280;5469;48.574;8.768;2023-02-17T08:45:06;95695.06;;;9.87;nan
10832;BME280;5469;48.574;8.768;2023-02-17T08:47:42;95696.06;;;9.81;nan
10832;BME280;5469;48.574;8.768;2023-02-17T08:50:18;95687.31;;;10.02;nan
10832;BME280;5469;48.574;8.768;2023-02-17T08:52:53;95687.69;;;9.89;nan
10832;BME280;5469;48.574;8.768;2023-02-17T08:55:28;95675.84;;;10.19;nan
10832;BME280;5469;48.574;8.768;2023-02-17T08:58:03;95684.72;;;10.07;nan
10832;BME280;5469;48.574;8.768;2023-02-17T09:00:39;95683.03;;;10.23;nan
10832;BME280;5469;48.574;8.768;2023-02-17T09:03:14;95684.47;;;10.31;nan
10832;BME280;5469;48.574;8.768;2023-02-17T09:05:54;95679.84;;;10.43;nan
10832;BME280;5469;48.574;8.768;2023-02-17T09:08:29;95687.75;;;10.38;nan
10832;BME280;5469;48.574;8.768;2023-02-17T09:11:06;95686.25;;;10.03;nan
10832;BME280;5469;48.574;8.768;2023-02-17T09:13:41;95699.03;;;10.06;nan
10832;BME280;5469;48.574;8.768;2023-02-17T09:16:16;95699.44;;;9.98;nan
10832;BME280;5469;48.574;8.768;2023-02-17T09:18:54;95694.94;;;10.21;nan
10832;BME280;5469;48.574;8.768;2023-02-17T09:21:31;95686.31;;;10.09;nan
10832;BME280;5469;48.574;8.768;2023-02-17T09:24:06;95698.03;;;10.13;nan
10832;BME280;5469;48.574;8.768;2023-02-17T09:26:42;95684.09;;;10.00;nan
10832;BME280;5469;48.574;8.768;2023-02-17T09:29:18;95683.97;;;10.88;nan
10832;BME280;5469;48.574;8.768;2023-02-17T09:31:53;95675.69;;;10.53;nan
10832;BME280;5469;48.574;8.768;2023-02-17T09:34:28;95684.75;;;10.57;nan
10832;BME280;5469;48.574;8.768;2023-02-17T09:37:08;95696.06;;;10.25;nan
10832;BME280;5469;48.574;8.768;2023-02-17T09:39:44;95699.63;;;10.14;nan
10832;BME280;5469;48.574;8.768;2023-02-17T09:42:22;95687.69;;;10.33;nan
10832;BME280;5469;48.574;8.768;2023-02-17T09:45:01;95671.53;;;10.35;nan
10832;BME280;5469;48.574;8.768;2023-02-17T09:47:42;95662.53;;;10.63;nan
10832;BME280;5469;48.574;8.768;2023-02-17T09:50:21;95682.91;;;10.30;nan
10832;BME280;5469;48.574;8.768;2023-02-17T09:53:03;95687.31;;;11.11;nan
10832;BME280;5469;48.574;8.768;2023-02-17T09:55:43;95683.88;;;11.53;nan
10832;BME280;5469;48.574;8.768;2023-02-17T09:58:24;95691.16;;;12.31;nan
10832;BME280;5469;48.574;8.768;2023-02-17T10:01:03;95682.75;;;13.00;nan
10832;BME280;5469;48.574;8.768;2023-02-17T10:03:45;95699.56;;;12.02;nan
10832;BME280;5469;48.574;8.768;2023-02-17T10:06:25;95678.66;;;12.31;nan
10832;BME280;5469;48.574;8.768;2023-02-17T10:09:10;95693.03;;;12.30;nan
10832;BME280;5469;48.574;8.768;2023-02-17T10:11:50;95679.56;;;12.83;nan
10832;BME280;5469;48.574;8.768;2023-02-17T10:14:32;95693.88;;;13.69;nan
10832;BME280;5469;48.574;8.768;2023-02-17T10:17:15;95682.19;;;12.78;nan
10832;BME280;5469;48.574;8.768;2023-02-17T10:19:55;95688.34;;;12.94;nan
10832;BME280;5469;48.574;8.768;2023-02-17T10:22:36;95679.28;;;12.74;nan
10832;BME280;5469;48.574;8.768;2023-02-17T10:25:17;95697.34;;;12.67;nan
10832;BME280;5469;48.574;8.768;2023-02-17T10:27:58;95676.59;;;12.64;nan
10832;BME280;5469;48.574;8.768;2023-02-17T10:30:43;95677.91;;;12.51;nan
10832;BME280;5469;48.574;8.768;2023-02-17T10:33:27;95666.19;;;12.37;nan
10832;BME280;5469;48.574;8.768;2023-02-17T10:36:15;95656.56;;;12.20;nan
10832;BME280;5469;48.574;8.768;2023-02-17T10:38:59;95666.25;;;13.19;nan
10832;BME280;5469;48.574;8.768;2023-02-17T10:41:40;95690.91;;;12.42;nan
10832;BME280;5469;48.574;8.768;2023-02-17T10:44:19;95700.75;;;12.42;nan
10832;BME280;5469;48.574;8.768;2023-02-17T10:46:55;95696.25;;;11.85;nan
10832;BME280;5469;48.574;8.768;2023-02-17T10:49:35;95689.97;;;12.01;nan
10832;BME280;5469;48.574;8.768;2023-02-17T10:52:15;95698.53;;;12.13;nan
10832;BME280;5469;48.574;8.768;2023-02-17T10:54:56;95702.75;;;11.99;nan
10832;BME280;5469;48.574;8.768;2023-02-17T10:57:38;95699.78;;;11.95;nan
10832;BME280;5469;48.574;8.768;2023-02-17T11:00:17;95710.22;;;12.07;nan
10832;BME280;5469;48.574;8.768;2023-02-17T11:02:54;95722.72;;;11.69;nan
10832;BME280;5469;48.574;8.768;2023-02-17T11:05:31;95699.41;;;11.76;nan
10832;BME280;5469;48.574;8.768;2023-02-17T11:08:19;95704.72;;;11.76;nan
10832;BME280;5469;48.574;8.768;2023-02-17T11:11:02;95701.69;;;12.05;nan
10832;BME280;5469;48.574;8.768;2023-02-17T11:13:45;95693.72;;;12.05;nan
10832;BME280;5469;48.574;8.768;2023-02-17T11:16:40;95715.00;;;12.10;nan
10832;BME280;5469;48.574;8.768;2023-02-17T11:19:24;95700.09;;;12.04;nan
10832;BME280;5469;48.574;8.768;2023-02-17T11:22:01;95689.06;;;12.38;nan
10832;BME280;5469;48.574;8.768;2023-02-17T11:24:36;95721.75;;;12.38;nan
10832;BME280;5469;48.574;8.768;2023-02-17T11:27:12;95687.19;;;12.33;nan
10832;BME280;5469;48.574;8.768;2023-02-17T11:30:07;95691.03;;;11.95;nan
10832;BME280;5469;48.574;8.768;2023-02-17T11:32:43;95688.91;;;11.97;nan
10832;BME280;5469;48.574;8.768;2023-02-17T11:35:22;95696.03;;;11.86;nan
10832;BME280;5469;48.574;8.768;2023-02-17T11:38:02;95681.38;;;11.78;nan
10832;BME280;5469;48.574;8.768;2023-02-17T11:40:39;95682.44;;;11.82;nan
10832;BME280;5469;48.574;8.768;2023-02-17T11:43:16;95688.56;;;11.83;nan
10832;BME280;5469;48.574;8.768;2023-02-17T11:45:59;95676.13;;;11.89;nan
10832;BME280;5469;48.574;8.768;2023-02-17T11:48:49;95679.84;;;11.88;nan
10832;BME280;5469;48.574;8.768;2023-02-17T11:51:34;95698.31;;;11.72;nan
10832;BME280;5469;48.574;8.768;2023-02-17T11:54:22;95691.03;;;11.95;nan
10832;BME280;5469;48.574;8.768;2023-02-17T11:57:02;95690.50;;;11.98;nan
10832;BME280;5469;48.574;8.768;2023-02-17T11:59:50;95684.25;;;12.45;nan
10832;BME280;5469;48.574;8.768;2023-02-17T12:05:48;95661.94;;;12.36;nan
10832;BME280;5469;48.574;8.768;2023-02-17T12:08:32;95667.50;;;12.34;nan
10832;BME280;5469;48.574;8.768;2023-02-17T12:11:17;95663.47;;;12.16;nan
10832;BME280;5469;48.574;8.768;2023-02-17T12:14:02;95669.25;;;11.98;nan
10832;BME280;5469;48.574;8.768;2023-02-17T12:16:50;95686.81;;;11.99;nan
10832;BME280;5469;48.574;8.768;2023-02-17T12:19:44;95673.00;;;12.02;nan
10832;BME280;5469;48.574;8.768;2023-02-17T12:22:21;95666.91;;;12.07;nan
10832;BME280;5469;48.574;8.768;2023-02-17T12:25:05;95671.97;;;12.13;nan
10832;BME280;5469;48.574;8.768;2023-02-17T12:27:55;95665.63;;;12.19;nan
10832;BME280;5469;48.574;8.768;2023-02-17T12:30:41;95672.00;;;12.23;nan
10832;BME280;5469;48.574;8.768;2023-02-17T12:33:30;95653.66;;;12.22;nan
10832;BME280;5469;48.574;8.768;2023-02-17T12:36:12;95655.50;;;12.16;nan
10832;BME280;5469;48.574;8.768;2023-02-17T12:38:52;95658.72;;;12.29;nan
10832;BME280;5469;48.574;8.768;2023-02-17T12:41:30;95659.06;;;12.83;nan
10832;BME280;5469;48.574;8.768;2023-02-17T12:44:09;95659.34;;;13.07;nan
10832;BME280;5469;48.574;8.768;2023-02-17T12:46:49;95668.66;;;13.00;nan
10832;BME280;5469;48.574;8.768;2023-02-17T12:49:29;95668.66;;;13.00;nan
10832;BME280;5469;48.574;8.768;2023-02-17T12:52:12;95646.03;;;12.92;nan
10832;BME280;5469;48.574;8.768;2023-02-17T12:54:51;95657.72;;;12.86;nan
10832;BME280;5469;48.574;8.768;2023-02-17T12:57:35;95647.63;;;12.83;nan
10832;BME280;5469;48.574;8.768;2023-02-17T13:00:14;95651.34;;;12.82;nan
10832;BME280;5469;48.574;8.768;2023-02-17T13:02:53;95647.63;;;12.73;nan
10832;BME280;5469;48.574;8.768;2023-02-17T13:05:34;95648.66;;;12.46;nan
10832;BME280;5469;48.574;8.768;2023-02-17T13:08:17;95651.84;;;12.38;nan
10832;BME280;5469;48.574;8.768;2023-02-17T13:11:01;95654.50;;;12.43;nan
10832;BME280;5469;48.574;8.768;2023-02-17T13:13:38;95641.69;;;12.19;nan
10832;BME280;5469;48.574;8.768;2023-02-17T13:16:14;95668.78;;;12.21;nan
10832;BME280;5469;48.574;8.768;2023-02-17T13:18:50;95665.16;;;12.43;nan
10832;BME280;5469;48.574;8.768;2023-02-17T13:21:30;95665.09;;;12.28;nan
10832;BME280;5469;48.574;8.768;2023-02-17T13:24:14;95671.75;;;12.30;nan
10832;BME280;5469;48.574;8.768;2023-02-17T13:26:51;95682.09;;;12.21;nan
10832;BME280;5469;48.574;8.768;2023-02-17T13:29:35;95684.22;;;12.14;nan
10832;BME280;5469;48.574;8.768;2023-02-17T13:32:12;95679.09;;;11.97;nan
10832;BME280;5469;48.574;8.768;2023-02-17T13:34:47;95683.59;;;11.97;nan
10832;BME280;5469;48.574;8.768;2023-02-17T13:37:42;95677.56;;;12.17;nan
10832;BME280;5469;48.574;8.768;2023-02-17T13:40:34;95681.28;;;12.16;nan
10832;BME280;5469;48.574;8.768;2023-02-17T13:43:13;95685.19;;;11.98;nan
10832;BME280;5469;48.574;8.768;2023-02-17T13:45:51;95685.78;;;12.15;nan
10832;BME280;5469;48.574;8.768;2023-02-17T13:48:29;95693.69;;;12.00;nan
10832;BME280;5469;48.574;8.768;2023-02-17T13:51:06;95702.81;;;12.19;nan
10832;BME280;5469;48.574;8.768;2023-02-17T13:53:42;95704.69;;;12.24;nan
10832;BME280;5469;48.574;8.768;2023-02-17T13:56:28;95690.69;;;11.81;nan
10832;BME280;5469;48.574;8.768;2023-02-17T13:59:06;95693.44;;;11.96;nan
10832;BME280;5469;48.574;8.768;2023-02-17T14:01:42;95695.09;;;11.60;nan
10832;BME280;5469;48.574;8.768;2023-02-17T14:04:20;95689.78;;;11.60;nan
10832;BME280;5469;48.574;8.768;2023-02-17T14:06:59;95694.59;;;11.68;nan
10832;BME280;5469;48.574;8.768;2023-02-17T14:09:36;95687.41;;;11.69;nan
10832;BME280;5469;48.574;8.768;2023-02-17T14:12:23;95678.81;;;11.94;nan
10832;BME280;5469;48.574;8.768;2023-02-17T14:14:58;95681.38;;;11.78;nan
10832;BME280;5469;48.574;8.768;2023-02-17T14:17:33;95674.97;;;11.74;nan
10832;BME280;5469;48.574;8.768;2023-02-17T14:20:26;95681.31;;;11.68;nan
10832;BME280;5469;48.574;8.768;2023-02-17T14:23:07;95682.34;;;11.67;nan
10832;BME280;5469;48.574;8.768;2023-02-17T14:25:45;95670.78;;;11.84;nan
10832;BME280;5469;48.574;8.768;2023-02-17T14:28:25;95676.78;;;11.69;nan
10832;BME280;5469;48.574;8.768;2023-02-17T14:31:09;95681.19;;;11.48;nan
10832;BME280;5469;48.574;8.768;2023-02-17T14:33:51;95675.41;;;11.56;nan
10832;BME280;5469;48.574;8.768;2023-02-17T14:36:27;95674.44;;;11.77;nan
10832;BME280;5469;48.574;8.768;2023-02-17T14:39:06;95676.34;;;11.34;nan
10832;BME280;5469;48.574;8.768;2023-02-17T14:41:42;95681.81;;;11.60;nan
10832;BME280;5469;48.574;8.768;2023-02-17T14:44:19;95675.78;;;11.32;nan
10832;BME280;5469;48.574;8.768;2023-02-17T14:46:54;95669.06;;;11.67;nan
10832;BME280;5469;48.574;8.768;2023-02-17T14:49:29;95671.16;;;11.55;nan
10832;BME280;5469;48.574;8.768;2023-02-17T14:52:14;95660.06;;;11.68;nan
10832;BME280;5469;48.574;8.768;2023-02-17T14:54:52;95664.91;;;11.81;nan
10832;BME280;5469;48.574;8.768;2023-02-17T14:57:27;95667.94;;;11.48;nan